Time;durP1;ratioP1;P1;durP2;ratioP2;P2;SDS_P1;SDS_P2;PMS_P1;PMS_P2;Temp;Humidity;BMP_temperature;BMP_pressure;BME280_temperature;BME280_humidity;BME280_pressure;Samples;Min_cycle;Max_cycle;Signal;HPM_P1;HPM_P2
2021/04/21 00:00:25;;;;;;;40.92;24.30;;;;;;;4.05;73.42;96927.41;1813817;78;25794;-81
2021/04/21 00:02:56;;;;;;;45.05;24.90;;;;;;;4.02;73.50;96927.77;1790239;78;25728;-81
2021/04/21 00:05:26;;;;;;;40.60;21.97;;;;;;;4.08;73.50;96924.38;1790178;78;25799;-81
2021/04/21 00:07:56;;;;;;;41.35;22.65;;;;;;;4.10;73.42;96907.67;1808318;78;27497;-80
2021/04/21 00:10:25;;;;;;;42.65;23.42;;;;;;;4.07;73.40;96916.04;1793292;78;26490;-80
2021/04/21 00:12:54;;;;;;;40.48;21.77;;;;;;;4.12;73.50;96918.97;1793665;78;25803;-80
2021/04/21 00:15:24;;;;;;;32.30;19.20;;;;;;;4.11;73.45;96910.12;1795366;78;25735;-80
2021/04/21 00:17:59;;;;;;;35.52;20.02;;;;;;;4.10;73.37;96905.00;1790157;78;25333;-80
2021/04/21 00:20:27;;;;;;;36.55;20.00;;;;;;;4.10;73.43;96906.33;1790111;78;28536;-80
2021/04/21 00:22:58;;;;;;;31.93;18.98;;;;;;;4.16;73.47;96910.93;1789938;78;25680;-81
2021/04/21 00:25:31;;;;;;;32.35;19.02;;;;;;;4.17;73.45;96913.42;1790061;78;25794;-81
2021/04/21 00:27:59;;;;;;;41.40;20.70;;;;;;;4.18;73.49;96905.73;1803059;78;25695;-80
2021/04/21 00:30:28;;;;;;;35.50;20.15;;;;;;;4.16;73.43;96901.58;1798434;78;25787;-81
2021/04/21 00:32:58;;;;;;;31.50;18.60;;;;;;;4.16;73.47;96898.91;1790040;78;28460;-81
2021/04/21 00:38:21;;;;;;;31.23;19.02;;;;;;;4.09;73.66;96888.14;1873034;76;25826;-81
2021/04/21 00:41:09;;;;;;;30.92;18.98;;;;;;;4.01;73.78;96887.38;1852333;77;25840;-81
2021/04/21 00:43:44;;;;;;;35.20;19.12;;;;;;;3.98;73.91;96892.60;1817849;77;27490;-81
2021/04/21 00:46:19;;;;;;;33.80;19.98;;;;;;;3.92;74.03;96885.30;1826374;77;25761;-81
2021/04/21 00:49:12;;;;;;;35.30;21.23;;;;;;;3.91;74.06;96885.81;1832694;77;25837;-81
2021/04/21 00:52:03;;;;;;;35.03;21.60;;;;;;;3.98;74.14;96889.93;1818906;77;25378;-80
2021/04/21 00:55:02;;;;;;;29.72;18.27;;;;;;;4.00;74.16;96890.55;1818917;77;25683;-80
2021/04/21 00:57:53;;;;;;;30.57;17.95;;;;;;;3.96;74.10;96883.44;1818812;77;26760;-80
2021/04/21 01:00:25;;;;;;;31.12;18.35;;;;;;;3.99;74.20;96897.73;1818697;77;26203;-80
2021/04/21 01:03:06;;;;;;;27.73;16.65;;;;;;;3.99;74.17;96885.72;1811644;77;25762;-81
2021/04/21 01:05:45;;;;;;;30.15;17.85;;;;;;;3.99;74.21;96881.70;1803137;77;25906;-80
2021/04/21 01:08:20;;;;;;;31.95;17.30;;;;;;;4.01;74.19;96884.70;1818428;77;25808;-81
2021/04/21 01:11:12;;;;;;;31.52;18.25;;;;;;;4.03;74.22;96891.53;1818745;77;28530;-80
2021/04/21 01:13:53;;;;;;;34.78;18.70;;;;;;;4.03;74.09;96889.36;1831670;77;25810;-80
2021/04/21 01:16:24;;;;;;;32.48;17.92;;;;;;;4.04;74.15;96887.02;1795439;77;25862;-80
2021/04/21 01:18:56;;;;;;;29.72;17.55;;;;;;;4.06;74.15;96883.16;1815868;77;27275;-80
2021/04/21 01:21:46;;;;;;;34.20;18.90;;;;;;;4.03;74.09;96885.36;1807512;77;25821;-80
2021/04/21 01:24:37;;;;;;;26.17;16.60;;;;;;;4.04;74.16;96881.67;1818535;77;26705;-81
2021/04/21 01:27:15;;;;;;;31.30;17.77;;;;;;;4.03;74.15;96878.68;1818231;77;25754;-80
2021/04/21 01:29:47;;;;;;;29.18;17.82;;;;;;;4.01;74.12;96881.53;1818390;77;25752;-80
2021/04/21 01:32:18;;;;;;;32.23;18.13;;;;;;;3.99;74.14;96886.22;1819140;77;25695;-80
2021/04/21 01:34:48;;;;;;;34.27;18.12;;;;;;;3.91;74.08;96887.64;1809468;77;25802;-80
2021/04/21 01:37:21;;;;;;;27.40;16.00;;;;;;;3.90;74.13;96891.33;1790951;77;27486;-80
2021/04/21 01:40:05;;;;;;;34.10;17.35;;;;;;;3.90;74.14;96889.48;1755439;80;25833;-80
2021/04/21 01:42:36;;;;;;;31.40;18.10;;;;;;;3.83;74.04;96883.23;1742436;81;25846;-80
2021/04/21 01:45:06;;;;;;;25.25;17.17;;;;;;;3.78;74.03;96883.44;1730718;81;25780;-80
2021/04/21 01:47:35;;;;;;;28.65;17.90;;;;;;;3.72;73.92;96886.84;1732493;81;25827;-80
2021/04/21 01:50:08;;;;;;;27.37;16.40;;;;;;;3.66;73.92;96882.22;1747967;81;28596;-80
2021/04/21 01:52:52;;;;;;;24.43;15.60;;;;;;;3.62;74.02;96888.44;1731900;81;25800;-80
2021/04/21 01:55:49;;;;;;;29.42;14.80;;;;;;;3.60;74.05;96885.95;1731970;81;25830;-80
2021/04/21 01:59:10;;;;;;;26.35;15.53;;;;;;;3.57;74.10;96891.64;1728321;81;25827;-80
2021/04/21 02:02:22;;;;;;;28.45;16.45;;;;;;;3.52;74.04;96885.17;1732110;81;25810;-80
2021/04/21 02:05:16;;;;;;;27.77;16.32;;;;;;;3.46;74.11;96885.91;1732082;81;27521;-80
2021/04/21 02:08:21;;;;;;;26.45;15.98;;;;;;;3.44;74.17;96886.58;1741289;81;26130;-80
2021/04/21 02:11:22;;;;;;;27.05;16.20;;;;;;;3.39;74.18;96884.94;1751180;81;25803;-80
2021/04/21 02:14:28;;;;;;;30.77;16.30;;;;;;;3.37;74.24;96885.66;1761462;81;26380;-80
2021/04/21 02:17:13;;;;;;;26.65;16.07;;;;;;;3.38;74.28;96883.31;1745353;81;25358;-80
2021/04/21 02:20:26;;;;;;;27.80;15.75;;;;;;;3.38;74.25;96888.64;1760926;81;28466;-80
2021/04/21 02:23:08;;;;;;;;;;;;;;;3.33;74.26;96887.00;1765008;81;25775;-80
2021/04/21 02:25:59;;;;;;;28.45;15.70;;;;;;;3.22;74.39;96885.09;1769059;80;32238;-80
2021/04/21 02:28:38;;;;;;;31.50;17.07;;;;;;;3.10;74.42;96881.17;1766199;81;26151;-80
2021/04/21 02:31:27;;;;;;;32.73;16.80;;;;;;;3.05;74.55;96888.86;1746085;81;26077;-80
2021/04/21 02:34:32;;;;;;;26.17;15.63;;;;;;;2.95;74.57;96882.94;1767548;81;27641;-80
2021/04/21 02:37:32;;;;;;;31.17;17.02;;;;;;;2.87;74.66;96881.66;1773366;79;26101;-80
2021/04/21 02:40:23;;;;;;;26.55;16.25;;;;;;;2.87;74.83;96881.16;1779766;79;25826;-80
2021/04/21 02:43:32;;;;;;;26.25;15.93;;;;;;;2.93;74.87;96882.28;1785897;79;25790;-80
2021/04/21 02:46:14;;;;;;;23.95;14.43;;;;;;;2.91;74.80;96886.95;1763098;79;25906;-80
2021/04/21 02:49:15;;;;;;;23.00;14.80;;;;;;;2.85;74.74;96889.00;1778374;79;28493;-81
2021/04/21 02:52:17;;;;;;;22.37;14.50;;;;;;;2.86;74.85;96893.33;1794682;79;26374;-79
2021/04/21 02:55:07;;;;;;;25.08;14.13;;;;;;;2.89;74.82;96902.31;1794580;79;25822;-79
2021/04/21 02:57:49;;;;;;;23.55;14.10;;;;;;;2.91;74.68;96898.94;1773301;79;26178;-79
2021/04/21 03:00:31;;;;;;;25.52;15.38;;;;;;;2.86;74.64;96893.33;1775022;79;25792;-79
2021/04/21 03:03:21;;;;;;;29.30;15.43;;;;;;;2.75;74.55;96895.89;1792425;79;28449;-79
2021/04/21 03:05:54;;;;;;;29.87;16.80;;;;;;;2.70;74.57;96897.41;1762350;79;26211;-80
2021/04/21 03:08:35;;;;;;;30.35;16.10;;;;;;;2.67;74.75;96899.91;1762802;79;25691;-79
2021/04/21 03:11:16;;;;;;;27.15;17.12;;;;;;;2.57;74.70;96893.97;1749841;79;26091;-80
2021/04/21 03:14:16;;;;;;;23.35;15.90;;;;;;;2.57;74.94;96899.80;1768731;79;25834;-80
2021/04/21 03:16:47;;;;;;;26.45;14.95;;;;;;;2.61;75.20;96900.63;1790994;79;27525;-80
2021/04/21 03:19:18;;;;;;;25.43;15.08;;;;;;;2.67;75.36;96891.09;1772146;80;25699;-80
2021/04/21 03:21:57;;;;;;;30.12;17.48;;;;;;;2.73;75.39;96889.07;1775918;80;25810;-80
2021/04/21 03:24:32;;;;;;;27.65;16.42;;;;;;;2.76;75.35;96889.56;1813232;79;26309;-80
2021/04/21 03:27:04;;;;;;;28.65;15.65;;;;;;;2.78;75.31;96886.69;1816920;78;25892;-80
2021/04/21 03:29:42;;;;;;;27.15;15.98;;;;;;;2.79;75.26;96886.52;1784739;79;27566;-80
2021/04/21 03:32:14;;;;;;;25.95;14.80;;;;;;;2.81;75.30;96891.68;1814936;78;25722;-80
2021/04/21 03:34:44;;;;;;;24.98;15.70;;;;;;;2.84;75.29;96888.67;1800920;78;26209;-80
2021/04/21 03:40:01;;;;;;;30.90;17.55;;;;;;;2.96;75.26;96886.44;1866964;76;35241;-81
2021/04/21 03:42:28;;;;;;;25.82;16.52;;;;;;;2.91;75.27;96890.95;1806076;77;25723;-81
2021/04/21 03:44:56;;;;;;;34.15;17.85;;;;;;;2.94;75.30;96893.27;1841760;77;27482;-80
2021/04/21 03:47:23;;;;;;;27.80;18.50;;;;;;;2.97;75.29;96890.76;1804003;77;25654;-81
2021/04/21 03:49:53;;;;;;;28.87;17.87;;;;;;;2.98;75.29;96893.25;1818925;77;25719;-81
2021/04/21 03:52:24;;;;;;;30.10;18.10;;;;;;;2.97;75.30;96895.59;1818893;77;25826;-80
2021/04/21 03:54:53;;;;;;;28.50;17.70;;;;;;;3.01;75.36;96896.91;1819240;77;25807;-81
2021/04/21 03:57:23;;;;;;;37.28;19.95;;;;;;;3.03;75.43;96896.70;1813560;77;27570;-81
2021/04/21 03:59:52;;;;;;;46.83;22.50;;;;;;;2.98;75.40;96893.25;1809210;77;25726;-81
2021/04/21 04:02:22;;;;;;;52.90;24.75;;;;;;;2.96;75.56;96896.59;1818964;77;25728;-81
2021/04/21 04:04:54;;;;;;;47.67;25.50;;;;;;;2.94;75.64;96902.59;1818845;77;25808;-81
2021/04/21 04:07:25;;;;;;;48.10;24.23;;;;;;;2.96;75.68;96901.92;1819058;77;26351;-80
2021/04/21 04:09:52;;;;;;;44.05;23.80;;;;;;;2.96;75.68;96901.92;1835614;77;27481;-81
2021/04/21 04:12:21;;;;;;;40.55;21.33;;;;;;;2.90;75.75;96905.28;1809231;77;25850;-81
2021/04/21 04:14:51;;;;;;;32.73;18.60;;;;;;;2.89;75.86;96897.81;1818919;77;25727;-81
2021/04/21 04:17:22;;;;;;;34.83;20.25;;;;;;;2.97;75.90;96899.59;1820290;77;25722;-81
2021/04/21 04:19:52;;;;;;;36.75;21.23;;;;;;;3.05;75.96;96901.36;1826031;77;26307;-81
2021/04/21 04:22:21;;;;;;;76.35;33.92;;;;;;;3.12;75.95;96905.83;1829367;76;28456;-81
2021/04/21 04:24:54;;;;;;;80.32;35.25;;;;;;;3.17;75.94;96906.11;1852172;77;25813;-81
2021/04/21 04:27:26;;;;;;;73.95;34.80;;;;;;;3.23;75.87;96909.42;1796859;77;25828;-81
2021/04/21 04:29:56;;;;;;;75.92;34.23;;;;;;;3.29;75.85;96909.70;1831405;77;25711;-81
2021/04/21 04:32:26;;;;;;;101.38;43.63;;;;;;;3.36;75.84;96917.34;1852358;77;25777;-81
2021/04/21 04:34:57;;;;;;;107.60;46.18;;;;;;;3.38;75.74;96913.45;1852393;77;26768;-81
2021/04/21 04:37:27;;;;;;;95.42;43.70;;;;;;;3.40;75.74;96915.95;1828786;77;25777;-81
2021/04/21 04:39:55;;;;;;;89.72;40.70;;;;;;;3.43;75.78;96918.27;1833879;77;26320;-81
2021/04/21 04:42:23;;;;;;;80.72;38.63;;;;;;;3.46;75.82;96916.08;1842377;77;26167;-81
2021/04/21 04:44:52;;;;;;;93.52;42.00;;;;;;;3.51;75.83;96917.69;1834964;77;25696;-81
2021/04/21 04:47:27;;;;;;;83.72;40.48;;;;;;;3.56;75.82;96921.17;1825516;77;28471;-81
2021/04/21 04:50:05;;;;;;;75.65;39.78;;;;;;;3.60;75.84;96921.15;1834125;77;25706;-81
2021/04/21 04:52:36;;;;;;;81.15;41.83;;;;;;;3.62;75.82;96920.47;1846728;77;25742;-80
2021/04/21 04:55:05;;;;;;;76.20;39.40;;;;;;;3.68;75.83;96929.58;1786224;78;25916;-80
2021/04/21 04:57:33;;;;;;;77.10;39.27;;;;;;;3.71;75.79;96930.06;1841861;77;25721;-81
2021/04/21 05:00:05;;;;;;;71.67;37.10;;;;;;;3.73;75.76;96932.55;1832308;77;27487;-81
2021/04/21 05:03:04;;;;;;;67.05;32.33;;;;;;;3.75;75.84;96934.01;1828023;77;25700;-81
2021/04/21 05:05:36;;;;;;;58.92;32.38;;;;;;;3.79;75.84;96932.65;1812356;77;25761;-81
2021/04/21 05:08:13;;;;;;;53.05;28.62;;;;;;;3.85;75.89;96937.28;1825569;77;26217;-81
2021/04/21 05:11:01;;;;;;;53.87;28.50;;;;;;;3.91;75.89;96936.55;1839711;77;25809;-81
2021/04/21 05:16:49;;;;;;;49.15;28.80;;;;;;;3.94;76.02;96940.70;1880039;74;25619;-79
2021/04/21 05:20:04;;;;;;;46.13;28.12;;;;;;;3.95;76.10;96939.19;1794942;77;25936;-81
2021/04/21 05:23:02;;;;;;;52.45;26.42;;;;;;;4.05;76.21;96944.77;1844459;77;28388;-81
2021/04/21 05:26:12;;;;;;;47.30;26.05;;;;;;;4.17;76.20;96945.98;1847272;75;25741;-80
2021/04/21 05:29:15;;;;;;;50.88;28.12;;;;;;;4.25;76.12;96941.38;1844910;75;25767;-80
2021/04/21 05:32:28;;;;;;;54.98;29.85;;;;;;;4.33;76.15;96944.48;1837223;77;25790;-80
2021/04/21 05:35:23;;;;;;;48.73;28.65;;;;;;;4.45;76.27;96944.35;1824985;75;25801;-80
2021/04/21 05:38:36;;;;;;;47.35;25.37;;;;;;;4.56;76.25;96946.56;1846072;75;27489;-80
2021/04/21 05:41:30;;;;;;;35.95;22.05;;;;;;;4.65;76.13;96946.78;1852053;75;25888;-79
2021/04/21 05:44:34;;;;;;;34.65;19.82;;;;;;;4.76;76.08;96944.64;1853920;75;25863;-79
2021/04/21 05:47:26;;;;;;;34.90;20.72;;;;;;;4.82;75.79;96950.60;1843758;75;25703;-79
2021/04/21 05:50:22;;;;;;;40.90;22.07;;;;;;;4.88;75.65;96947.16;1829220;77;25824;-80
2021/04/21 05:53:23;;;;;;;37.23;23.07;;;;;;;4.97;75.61;96952.22;1812008;75;27475;-80
2021/04/21 05:56:14;;;;;;;49.58;29.60;;;;;;;5.06;75.60;96943.59;1815263;75;25800;-79
2021/04/21 05:59:08;;;;;;;57.20;31.52;;;;;;;5.15;75.54;96945.14;1825229;77;25759;-80
2021/04/21 06:01:45;;;;;;;61.60;33.90;;;;;;;5.23;75.58;96941.00;1831824;75;25792;-80
2021/04/21 06:04:17;;;;;;;71.33;35.33;;;;;;;5.30;75.65;96945.94;1839751;75;25876;-79
2021/04/21 06:06:45;;;;;;;72.80;37.50;;;;;;;5.38;75.66;96945.80;1831296;75;27546;-80
2021/04/21 06:09:12;;;;;;;68.02;36.63;;;;;;;5.45;75.75;96939.16;1812025;75;25762;-79
2021/04/21 06:11:40;;;;;;;59.05;32.33;;;;;;;5.55;75.82;96933.52;1837488;77;25731;-79
2021/04/21 06:14:08;;;;;;;58.08;32.25;;;;;;;5.64;75.76;96933.70;1835568;75;26148;-80
2021/04/21 06:16:38;;;;;;;55.35;32.33;;;;;;;5.72;75.66;96934.90;1800289;77;25782;-80
2021/04/21 06:19:09;;;;;;;50.05;30.82;;;;;;;5.82;75.65;96938.08;1799130;78;27555;-80
2021/04/21 06:21:39;;;;;;;55.40;31.42;;;;;;;5.90;75.62;96933.97;1822173;78;26039;-80
2021/04/21 06:24:26;;;;;;;58.60;31.42;;;;;;;5.99;75.55;96927.44;1799133;78;25732;-80
2021/04/21 06:27:10;;;;;;;55.60;32.15;;;;;;;6.07;75.58;96928.63;1798799;78;25790;-80
2021/04/21 06:29:38;;;;;;;55.00;31.48;;;;;;;6.20;75.60;96927.07;1798786;78;25874;-80
2021/04/21 06:32:12;;;;;;;50.38;31.10;;;;;;;6.34;75.53;96928.82;1798641;78;27714;-80
2021/04/21 06:34:38;;;;;;;51.37;32.67;;;;;;;6.46;75.38;96928.59;1814158;78;25765;-80
2021/04/21 06:37:06;;;;;;;44.67;26.93;;;;;;;6.61;75.47;96930.65;1805261;78;25786;-80
2021/04/21 06:39:34;;;;;;;52.33;29.98;;;;;;;6.78;75.19;96926.59;1798559;78;25818;-80
2021/04/21 06:42:04;;;;;;;46.58;25.60;;;;;;;6.96;75.18;96922.55;1798582;78;25778;-80
2021/04/21 06:44:43;;;;;;;41.95;26.48;;;;;;;7.15;74.96;96919.11;1798712;78;27539;-80
2021/04/21 06:47:14;;;;;;;34.73;21.42;;;;;;;7.35;74.96;96912.47;1798613;78;25686;-80
2021/04/21 06:49:42;;;;;;;34.07;22.57;;;;;;;7.56;74.62;96913.13;1738161;81;25910;-80
2021/04/21 06:52:14;;;;;;;38.23;23.35;;;;;;;7.78;74.41;96910.25;1753306;81;25688;-80
2021/04/21 06:54:42;;;;;;;33.95;21.42;;;;;;;7.99;74.43;96908.70;1749606;80;25881;-80
2021/04/21 06:57:10;;;;;;;33.75;20.90;;;;;;;8.17;73.90;96910.25;1738130;81;27575;-80
2021/04/21 06:59:37;;;;;;;34.88;21.48;;;;;;;8.35;73.66;96908.80;1749555;80;25743;-80
2021/04/21 07:02:05;;;;;;;36.10;21.52;;;;;;;8.54;73.37;96906.61;1749557;80;25920;-80
2021/04/21 07:04:35;;;;;;;30.15;19.32;;;;;;;8.70;72.95;96914.20;1745741;81;26066;-80
2021/04/21 07:07:04;;;;;;;31.10;19.82;;;;;;;8.82;72.45;96912.52;1762538;79;25796;-80
2021/04/21 07:09:31;;;;;;;29.00;19.67;;;;;;;8.94;72.21;96916.20;1763344;79;28454;-80
2021/04/21 07:12:02;;;;;;;34.43;21.50;;;;;;;9.06;72.07;96923.64;1763211;79;25813;-80
2021/04/21 07:14:31;;;;;;;32.65;21.35;;;;;;;9.17;72.05;96920.27;1763299;79;26660;-80
2021/04/21 07:17:00;;;;;;;36.80;21.17;;;;;;;9.28;71.57;96915.55;1735515;81;26226;-80
2021/04/21 07:19:28;;;;;;;38.80;20.88;;;;;;;9.36;71.21;96916.64;1763406;79;25873;-80
2021/04/21 07:21:57;;;;;;;35.80;22.48;;;;;;;9.44;71.03;96908.81;1756085;79;28521;-80
2021/04/21 07:24:33;;;;;;;33.50;21.02;;;;;;;9.52;70.93;96910.76;1763348;79;25783;-80
2021/04/21 07:27:11;;;;;;;36.33;20.85;;;;;;;9.57;70.73;96904.70;1763336;79;25752;-80
2021/04/21 07:29:39;;;;;;;37.05;21.20;;;;;;;9.60;70.28;96910.48;1763390;79;25861;-80
2021/04/21 07:32:24;;;;;;;35.35;22.10;;;;;;;9.63;70.13;96912.76;1763283;79;25780;-80
2021/04/21 07:35:00;;;;;;;36.35;21.23;;;;;;;9.68;69.97;96917.48;1763332;79;27690;-80
2021/04/21 07:37:40;;;;;;;34.90;21.07;;;;;;;9.72;69.99;96914.14;1763309;79;25715;-80
2021/04/21 07:40:25;;;;;;;35.23;21.62;;;;;;;9.79;69.66;96917.30;1763577;79;25742;-80
2021/04/21 07:43:11;;;;;;;37.85;20.88;;;;;;;9.79;69.55;96912.73;1763439;79;25981;-81
2021/04/21 07:45:58;;;;;;;35.08;21.20;;;;;;;9.88;69.54;96913.31;1763412;79;25779;-80
2021/04/21 07:48:37;;;;;;;37.50;21.45;;;;;;;10.01;69.59;96909.17;1763407;79;27711;-80
2021/04/21 07:51:24;;;;;;;36.03;23.02;;;;;;;10.18;69.61;96918.38;1763207;79;25843;-80
2021/04/21 07:54:01;;;;;;;38.05;24.32;;;;;;;10.33;69.39;96917.52;1763406;79;25834;-81
2021/04/21 07:56:39;;;;;;;36.08;22.37;;;;;;;10.51;69.13;96915.37;1763411;79;25714;-80
2021/04/21 07:59:20;;;;;;;41.73;22.93;;;;;;;10.59;68.75;96914.27;1761072;79;25753;-80
2021/04/21 08:01:49;;;;;;;31.15;21.73;;;;;;;10.71;68.99;96918.71;1763353;79;27603;-80
2021/04/21 08:07:02;;;;;;;31.17;19.75;;;;;;;11.21;68.59;96909.09;1877676;76;25680;-81
2021/04/21 08:09:36;;;;;;;34.63;20.37;;;;;;;11.57;67.68;96911.42;1824817;77;25947;-81
2021/04/21 08:12:13;;;;;;;28.75;19.17;;;;;;;11.87;67.30;96910.36;1793683;77;27495;-81
2021/04/21 08:14:54;;;;;;;29.12;20.08;;;;;;;12.06;66.78;96914.36;1847777;75;25795;-81
2021/04/21 08:17:22;;;;;;;19.23;14.78;;;;;;;12.21;66.31;96921.48;1796514;77;25757;-81
2021/04/21 08:19:57;;;;;;;20.95;14.47;;;;;;;12.32;66.11;96917.96;1777659;78;25781;-81
2021/04/21 08:22:28;;;;;;;31.02;20.55;;;;;;;12.31;65.42;96919.58;1787194;78;25372;-81
2021/04/21 08:24:58;;;;;;;34.38;21.87;;;;;;;12.33;64.90;96922.31;1774100;78;28510;-81
2021/04/21 08:27:27;;;;;;;27.02;19.70;;;;;;;12.44;65.06;96922.85;1768432;78;25779;-82
2021/04/21 08:29:54;;;;;;;31.80;17.90;;;;;;;12.77;64.75;96918.22;1780166;78;26457;-81
2021/04/21 08:32:23;;;;;;;20.40;14.90;;;;;;;13.01;64.48;96911.41;1787036;78;25797;-81
2021/04/21 08:34:51;;;;;;;21.42;14.38;;;;;;;13.13;63.83;96910.86;1776483;78;25763;-82
2021/04/21 08:37:20;;;;;;;18.50;13.13;;;;;;;13.23;63.60;96920.58;1781470;78;27498;-82
2021/04/21 08:39:48;;;;;;;18.02;12.90;;;;;;;13.31;62.79;96916.13;1777531;78;26286;-82
2021/04/21 08:42:16;;;;;;;16.20;11.57;;;;;;;13.36;62.11;96915.42;1775084;78;25801;-81
2021/04/21 08:44:43;;;;;;;19.48;12.63;;;;;;;13.45;62.10;96909.90;1763134;80;25437;-82
2021/04/21 08:47:15;;;;;;;15.35;11.18;;;;;;;13.47;61.82;96913.20;1786327;78;25568;-81
2021/04/21 08:49:43;;;;;;;17.75;12.05;;;;;;;13.47;60.97;96915.91;1779906;78;27016;-82
2021/04/21 08:52:16;;;;;;;13.88;11.93;;;;;;;13.39;60.64;96914.95;1790277;78;25769;-81
2021/04/21 08:54:51;;;;;;;15.85;11.80;;;;;;;13.36;60.73;96918.12;1794931;78;26435;-82
2021/04/21 08:57:19;;;;;;;19.15;11.43;;;;;;;13.29;60.35;96911.47;1773682;78;25819;-82
2021/04/21 08:59:49;;;;;;;16.48;12.07;;;;;;;13.21;60.19;96918.63;1780938;78;25867;-81
2021/04/21 09:02:17;;;;;;;13.25;10.32;;;;;;;13.06;59.72;96925.88;1780471;80;27545;-81
2021/04/21 09:04:45;;;;;;;12.90;9.45;;;;;;;12.92;59.26;96919.88;1786865;78;25795;-82
2021/04/21 09:07:14;;;;;;;13.80;10.50;;;;;;;12.82;58.84;96922.91;1786917;78;25845;-81
2021/04/21 09:09:41;;;;;;;11.43;9.73;;;;;;;12.78;58.84;96927.17;1786896;78;25762;-81
2021/04/21 09:12:09;;;;;;;12.58;9.38;;;;;;;12.81;58.80;96925.31;1793657;78;25823;-81
2021/04/21 09:14:36;;;;;;;11.65;8.28;;;;;;;12.90;58.53;96929.34;1789164;78;27769;-82
2021/04/21 09:17:05;;;;;;;12.10;8.50;;;;;;;13.01;58.40;96924.43;1786762;78;25926;-82
2021/04/21 09:19:36;;;;;;;11.68;8.28;;;;;;;13.17;57.96;96926.41;1771914;78;25840;-82
2021/04/21 09:22:11;;;;;;;16.20;9.83;;;;;;;13.43;57.88;96916.09;1780805;78;26170;-82
2021/04/21 09:24:40;;;;;;;10.80;8.50;;;;;;;13.77;58.62;96917.83;1785456;78;25730;-81
2021/04/21 09:27:34;;;;;;;10.82;8.13;;;;;;;14.10;57.67;96909.47;1774076;78;27557;-82
2021/04/21 09:30:21;;;;;;;11.97;7.83;;;;;;;14.33;57.13;96912.85;1791849;78;25755;-82
2021/04/21 09:32:55;;;;;;;9.60;7.53;;;;;;;14.58;56.38;96901.59;1767736;78;25761;-81
2021/04/21 09:35:30;;;;;;;11.15;8.05;;;;;;;14.58;55.06;96901.59;1782288;78;25783;-81
2021/04/21 09:38:19;;;;;;;9.75;7.47;;;;;;;14.58;54.47;96893.45;1792050;78;25706;-81
2021/04/21 09:40:53;;;;;;;10.13;8.15;;;;;;;14.51;54.33;96899.57;1789877;78;28560;-81
2021/04/21 09:43:24;;;;;;;11.15;7.72;;;;;;;14.55;54.42;96895.30;1781139;78;25730;-81
2021/04/21 09:45:57;;;;;;;12.30;7.12;;;;;;;14.74;54.37;96896.66;1773535;78;25809;-81
2021/04/21 09:48:31;;;;;;;11.12;7.33;;;;;;;14.89;53.46;96891.98;1791984;78;26230;-81
2021/04/21 09:51:04;;;;;;;11.97;8.08;;;;;;;15.00;53.22;96884.24;1786337;78;25936;-82
2021/04/21 09:53:45;;;;;;;9.53;7.42;;;;;;;15.18;52.97;96890.45;1793690;78;27303;-81
2021/04/21 09:56:25;;;;;;;9.05;7.30;;;;;;;15.48;52.76;96881.28;1781971;78;25801;-81
2021/04/21 09:58:55;;;;;;;8.60;7.33;;;;;;;15.56;52.22;96875.98;1788335;78;26359;-81
2021/04/21 10:01:38;;;;;;;9.35;7.20;;;;;;;15.67;52.47;96876.37;1786538;78;25826;-81
2021/04/21 10:04:24;;;;;;;9.48;6.55;;;;;;;15.63;52.08;96871.97;1773230;78;25932;-80
2021/04/21 10:06:55;;;;;;;8.78;6.90;;;;;;;15.66;51.90;96876.08;1767432;78;27514;-81
2021/04/21 10:09:31;;;;;;;;;;;;;;;15.64;51.44;96874.16;1784839;78;26219;-81
2021/04/21 10:12:26;;;;;;;18.12;11.12;;;;;;;15.60;50.49;96868.39;1786443;78;25755;-80
2021/04/21 10:15:14;;;;;;;19.77;13.10;;;;;;;15.49;51.26;96866.08;1786367;78;25791;-82
2021/04/21 10:17:44;;;;;;;14.20;9.90;;;;;;;15.50;51.04;96869.08;1795432;78;25793;-82
2021/04/21 10:20:18;;;;;;;9.58;8.05;;;;;;;15.40;50.64;96861.35;1775190;78;27629;-82
2021/04/21 10:22:47;;;;;;;14.03;8.65;;;;;;;15.29;50.40;96867.75;1786446;78;26349;-82
2021/04/21 10:25:16;;;;;;;10.88;8.40;;;;;;;15.13;49.66;96859.94;1774430;78;25736;-82
2021/04/21 10:27:44;;;;;;;11.75;9.65;;;;;;;14.99;50.02;96866.28;1785293;78;26164;-82
2021/04/21 10:30:13;;;;;;;15.53;10.08;;;;;;;14.85;49.89;96867.76;1780818;78;25767;-82
2021/04/21 10:32:41;;;;;;;16.90;10.98;;;;;;;14.77;50.24;96877.14;1779250;78;27504;-81
2021/04/21 10:35:09;;;;;;;13.72;10.53;;;;;;;14.65;50.10;96866.92;1790482;78;26139;-82
2021/04/21 10:37:40;;;;;;;10.30;8.18;;;;;;;14.55;50.29;96870.86;1780753;78;25770;-81
2021/04/21 10:40:11;;;;;;;10.70;8.95;;;;;;;14.55;50.40;96870.86;1757342;79;25935;-82
2021/04/21 10:42:53;;;;;;;11.63;8.78;;;;;;;14.61;50.31;96864.41;1773293;78;25814;-82
2021/04/21 10:45:25;;;;;;;9.80;8.18;;;;;;;14.78;50.82;96866.56;1784250;78;27516;-82
2021/04/21 10:47:55;;;;;;;9.50;7.72;;;;;;;14.86;49.74;96858.50;1787737;78;25726;-82
2021/04/21 10:50:43;;;;;;;11.55;9.03;;;;;;;14.97;49.93;96859.48;1788319;78;25754;-81
2021/04/21 10:53:39;;;;;;;10.28;8.13;;;;;;;15.30;49.84;96848.47;1780556;78;25739;-82
2021/04/21 10:56:24;;;;;;;10.03;8.65;;;;;;;15.73;49.92;96850.84;1776797;78;25783;-82
2021/04/21 10:58:57;;;;;;;12.25;8.90;;;;;;;16.32;50.08;96843.98;1790970;78;27493;-81
2021/04/21 11:01:37;;;;;;;11.20;8.35;;;;;;;16.99;49.71;96839.26;1790204;78;25786;-82
2021/04/21 11:04:11;;;;;;;11.70;9.03;;;;;;;17.47;49.38;96831.25;1774820;79;25380;-82
2021/04/21 11:06:46;;;;;;;13.38;8.23;;;;;;;17.56;48.74;96829.09;1783312;77;26196;-82
2021/04/21 11:09:16;;;;;;;12.90;8.83;;;;;;;17.56;48.88;96826.36;1805230;78;25727;-82
2021/04/21 11:11:50;;;;;;;15.25;8.85;;;;;;;17.79;48.44;96816.05;1795676;78;27500;-82
2021/04/21 11:14:42;;;;;;;11.50;8.10;;;;;;;17.92;47.00;96816.88;1777215;79;25743;-83
2021/04/21 11:17:12;;;;;;;10.68;9.33;;;;;;;18.08;46.61;96808.98;1782809;78;25931;-82
2021/04/21 11:19:44;;;;;;;10.55;8.35;;;;;;;18.24;46.99;96796.93;1789712;78;25667;-82
2021/04/21 11:22:19;;;;;;;10.82;8.50;;;;;;;18.45;46.83;96796.92;1798770;78;26245;-82
2021/04/21 11:25:20;;;;;;;11.33;8.53;;;;;;;18.59;46.18;96799.39;1773321;78;27515;-82
2021/04/21 11:27:48;;;;;;;12.23;10.40;;;;;;;18.63;45.60;96789.52;1778757;78;25844;-82
2021/04/21 11:30:42;;;;;;;11.60;9.25;;;;;;;18.43;45.45;96784.08;1810077;78;25733;-82
2021/04/21 11:33:10;;;;;;;11.73;8.15;;;;;;;18.43;45.94;96784.89;1817540;78;25918;-82
2021/04/21 11:35:38;;;;;;;11.88;8.63;;;;;;;18.57;45.60;96779.13;1822564;77;25760;-82
2021/04/21 11:38:05;;;;;;;11.10;8.00;;;;;;;18.55;45.33;96778.59;1791541;78;28337;-82
2021/04/21 11:40:35;;;;;;;11.73;7.28;;;;;;;18.52;44.78;96775.58;1788781;78;25639;-82
2021/04/21 11:43:18;;;;;;;12.10;7.70;;;;;;;18.45;44.78;96766.86;1780690;78;25699;-81
2021/04/21 11:45:45;;;;;;;10.25;8.28;;;;;;;18.28;44.74;96773.44;1774921;78;25690;-80
2021/04/21 11:48:18;;;;;;;12.75;7.92;;;;;;;18.08;44.53;96772.66;1787229;78;25784;-82
2021/04/21 12:04:09;;;;;;;9.30;6.40;;;;;;;18.30;42.33;96782.19;1821522;76;25617;-79
2021/04/21 12:06:37;;;;;;;7.53;5.97;;;;;;;17.64;42.50;96787.64;1792299;78;25869;-80
2021/04/21 12:09:05;;;;;;;6.78;5.85;;;;;;;17.01;42.68;96795.66;1791840;78;27479;-79
2021/04/21 12:11:34;;;;;;;9.58;6.80;;;;;;;16.49;43.33;96820.97;1811459;78;25766;-79
2021/04/21 12:14:02;;;;;;;8.60;7.12;;;;;;;15.80;44.09;96812.02;1784526;78;25706;-81
2021/04/21 12:16:33;;;;;;;9.80;7.92;;;;;;;15.31;45.64;96798.45;1787888;78;25745;-80
2021/04/21 12:19:01;;;;;;;10.35;6.08;;;;;;;15.11;47.40;96798.20;1815886;78;25882;-80
2021/04/21 12:21:36;;;;;;;7.00;6.30;;;;;;;15.27;48.52;96800.03;1803452;78;28442;-80
2021/04/21 12:24:07;;;;;;;6.85;5.90;;;;;;;15.66;48.69;96797.19;1784938;78;26380;-80
2021/04/21 12:26:45;;;;;;;6.65;5.58;;;;;;;16.09;49.23;96794.81;1793545;78;25510;-82
2021/04/21 12:29:16;;;;;;;6.85;6.00;;;;;;;16.60;48.68;96793.23;1777410;78;25787;-79
2021/04/21 12:31:44;;;;;;;6.30;5.70;;;;;;;16.99;48.31;96787.46;1804157;78;25789;-82
2021/04/21 12:34:21;;;;;;;8.20;6.65;;;;;;;17.39;48.01;96788.14;1776243;78;27494;-81